sensor_id;sensor_type;location;lat;lon;timestamp;P1;durP1;ratioP1;P2;durP2;ratioP2
9330;SDS011;4704;50.470;12.072;2023-05-23T00:00:13;2.90;;;2.70;;
9330;SDS011;4704;50.470;12.072;2023-05-23T00:02:40;3.20;;;3.00;;
9330;SDS011;4704;50.470;12.072;2023-05-23T00:05:10;3.20;;;3.00;;
9330;SDS011;4704;50.470;12.072;2023-05-23T00:07:39;3.15;;;2.95;;
9330;SDS011;4704;50.470;12.072;2023-05-23T00:10:07;3.20;;;3.00;;
9330;SDS011;4704;50.470;12.072;2023-05-23T00:12:34;3.38;;;3.17;;
9330;SDS011;4704;50.470;12.072;2023-05-23T00:15:03;3.40;;;3.10;;
9330;SDS011;4704;50.470;12.072;2023-05-23T00:17:33;3.10;;;2.90;;
9330;SDS011;4704;50.470;12.072;2023-05-23T00:20:02;3.13;;;2.92;;
9330;SDS011;4704;50.470;12.072;2023-05-23T00:22:30;3.28;;;3.08;;
9330;SDS011;4704;50.470;12.072;2023-05-23T00:24:58;3.20;;;3.00;;
9330;SDS011;4704;50.470;12.072;2023-05-23T00:27:27;3.25;;;3.05;;
9330;SDS011;4704;50.470;12.072;2023-05-23T00:29:54;3.40;;;3.20;;
9330;SDS011;4704;50.470;12.072;2023-05-23T00:32:22;3.20;;;3.00;;
9330;SDS011;4704;50.470;12.072;2023-05-23T00:34:49;3.10;;;2.90;;
9330;SDS011;4704;50.470;12.072;2023-05-23T00:37:18;3.15;;;2.95;;
9330;SDS011;4704;50.470;12.072;2023-05-23T00:39:47;2.95;;;2.80;;
9330;SDS011;4704;50.470;12.072;2023-05-23T00:42:15;3.03;;;2.83;;
9330;SDS011;4704;50.470;12.072;2023-05-23T00:44:42;3.15;;;2.95;;
9330;SDS011;4704;50.470;12.072;2023-05-23T00:47:12;3.22;;;3.03;;
9330;SDS011;4704;50.470;12.072;2023-05-23T00:49:39;3.30;;;3.10;;
9330;SDS011;4704;50.470;12.072;2023-05-23T00:52:07;3.10;;;2.92;;
9330;SDS011;4704;50.470;12.072;2023-05-23T00:54:34;3.22;;;3.03;;
9330;SDS011;4704;50.470;12.072;2023-05-23T00:57:04;2.85;;;2.65;;
9330;SDS011;4704;50.470;12.072;2023-05-23T00:59:32;3.10;;;2.90;;
9330;SDS011;4704;50.470;12.072;2023-05-23T01:01:59;3.15;;;2.95;;
9330;SDS011;4704;50.470;12.072;2023-05-23T01:04:27;2.90;;;2.70;;
9330;SDS011;4704;50.470;12.072;2023-05-23T01:06:54;3.33;;;3.13;;
9330;SDS011;4704;50.470;12.072;2023-05-23T01:09:22;3.08;;;2.88;;
9330;SDS011;4704;50.470;12.072;2023-05-23T01:11:55;3.10;;;2.90;;
9330;SDS011;4704;50.470;12.072;2023-05-23T01:14:28;3.05;;;2.85;;
9330;SDS011;4704;50.470;12.072;2023-05-23T01:16:59;3.15;;;2.95;;
9330;SDS011;4704;50.470;12.072;2023-05-23T01:19:38;2.95;;;2.75;;
9330;SDS011;4704;50.470;12.072;2023-05-23T01:22:10;3.05;;;2.85;;
9330;SDS011;4704;50.470;12.072;2023-05-23T01:24:40;2.92;;;2.75;;
9330;SDS011;4704;50.470;12.072;2023-05-23T01:27:16;3.08;;;2.88;;
9330;SDS011;4704;50.470;12.072;2023-05-23T01:29:52;2.88;;;2.67;;
9330;SDS011;4704;50.470;12.072;2023-05-23T01:32:20;3.22;;;3.03;;
9330;SDS011;4704;50.470;12.072;2023-05-23T01:34:48;2.72;;;2.60;;
9330;SDS011;4704;50.470;12.072;2023-05-23T01:37:18;3.35;;;3.15;;
9330;SDS011;4704;50.470;12.072;2023-05-23T01:39:46;3.03;;;2.83;;
9330;SDS011;4704;50.470;12.072;2023-05-23T01:42:13;2.75;;;2.63;;
9330;SDS011;4704;50.470;12.072;2023-05-23T01:44:40;2.80;;;2.70;;
9330;SDS011;4704;50.470;12.072;2023-05-23T01:47:10;2.80;;;2.70;;
9330;SDS011;4704;50.470;12.072;2023-05-23T01:49:37;2.95;;;2.75;;
9330;SDS011;4704;50.470;12.072;2023-05-23T01:52:06;3.00;;;2.80;;
9330;SDS011;4704;50.470;12.072;2023-05-23T01:54:35;3.05;;;2.85;;
9330;SDS011;4704;50.470;12.072;2023-05-23T01:57:03;3.00;;;2.80;;
9330;SDS011;4704;50.470;12.072;2023-05-23T01:59:31;3.50;;;3.20;;
9330;SDS011;4704;50.470;12.072;2023-05-23T02:01:58;2.72;;;2.53;;
9330;SDS011;4704;50.470;12.072;2023-05-23T02:04:28;2.58;;;2.47;;
9330;SDS011;4704;50.470;12.072;2023-05-23T02:06:55;3.00;;;2.80;;
9330;SDS011;4704;50.470;12.072;2023-05-23T02:09:23;2.85;;;2.65;;
9330;SDS011;4704;50.470;12.072;2023-05-23T02:11:50;3.13;;;2.92;;
9330;SDS011;4704;50.470;12.072;2023-05-23T02:14:18;3.00;;;2.80;;
9330;SDS011;4704;50.470;12.072;2023-05-23T02:16:45;3.08;;;2.88;;
9330;SDS011;4704;50.470;12.072;2023-05-23T02:19:13;2.78;;;2.58;;
9330;SDS011;4704;50.470;12.072;2023-05-23T02:21:41;2.67;;;2.58;;
9330;SDS011;4704;50.470;12.072;2023-05-23T02:24:09;2.75;;;2.60;;
9330;SDS011;4704;50.470;12.072;2023-05-23T02:26:36;3.00;;;2.80;;
9330;SDS011;4704;50.470;12.072;2023-05-23T02:29:03;2.72;;;2.53;;
9330;SDS011;4704;50.470;12.072;2023-05-23T02:31:31;2.95;;;2.75;;
9330;SDS011;4704;50.470;12.072;2023-05-23T02:33:58;2.80;;;2.60;;
9330;SDS011;4704;50.470;12.072;2023-05-23T02:36:25;2.92;;;2.72;;
9330;SDS011;4704;50.470;12.072;2023-05-23T02:38:54;2.92;;;2.72;;
9330;SDS011;4704;50.470;12.072;2023-05-23T02:41:22;2.70;;;2.60;;
9330;SDS011;4704;50.470;12.072;2023-05-23T02:43:50;2.63;;;2.53;;
9330;SDS011;4704;50.470;12.072;2023-05-23T02:46:17;2.78;;;2.58;;
9330;SDS011;4704;50.470;12.072;2023-05-23T02:48:44;2.80;;;2.60;;
9330;SDS011;4704;50.470;12.072;2023-05-23T02:51:12;2.90;;;2.70;;
9330;SDS011;4704;50.470;12.072;2023-05-23T02:53:39;2.67;;;2.53;;
9330;SDS011;4704;50.470;12.072;2023-05-23T02:56:08;2.90;;;2.70;;
9330;SDS011;4704;50.470;12.072;2023-05-23T02:58:37;2.45;;;2.35;;
9330;SDS011;4704;50.470;12.072;2023-05-23T03:01:05;3.00;;;2.80;;
9330;SDS011;4704;50.470;12.072;2023-05-23T03:03:33;2.95;;;2.75;;
9330;SDS011;4704;50.470;12.072;2023-05-23T03:06:01;2.67;;;2.58;;
9330;SDS011;4704;50.470;12.072;2023-05-23T03:08:30;2.80;;;2.60;;
9330;SDS011;4704;50.470;12.072;2023-05-23T03:10:57;2.88;;;2.70;;
9330;SDS011;4704;50.470;12.072;2023-05-23T03:13:27;2.72;;;2.53;;
9330;SDS011;4704;50.470;12.072;2023-05-23T03:15:54;2.63;;;2.53;;
9330;SDS011;4704;50.470;12.072;2023-05-23T03:18:21;2.70;;;2.50;;
9330;SDS011;4704;50.470;12.072;2023-05-23T03:20:49;2.83;;;2.63;;
9330;SDS011;4704;50.470;12.072;2023-05-23T03:23:17;2.40;;;2.30;;
9330;SDS011;4704;50.470;12.072;2023-05-23T03:25:44;2.70;;;2.60;;
9330;SDS011;4704;50.470;12.072;2023-05-23T03:28:12;2.70;;;2.50;;
9330;SDS011;4704;50.470;12.072;2023-05-23T03:30:40;2.60;;;2.50;;
9330;SDS011;4704;50.470;12.072;2023-05-23T03:33:08;3.00;;;2.80;;
9330;SDS011;4704;50.470;12.072;2023-05-23T03:35:36;2.70;;;2.60;;
9330;SDS011;4704;50.470;12.072;2023-05-23T03:38:04;2.72;;;2.63;;
9330;SDS011;4704;50.470;12.072;2023-05-23T03:40:31;2.85;;;2.65;;
9330;SDS011;4704;50.470;12.072;2023-05-23T03:43:02;2.78;;;2.60;;
9330;SDS011;4704;50.470;12.072;2023-05-23T03:45:30;2.78;;;2.58;;
9330;SDS011;4704;50.470;12.072;2023-05-23T03:47:59;3.10;;;2.90;;
9330;SDS011;4704;50.470;12.072;2023-05-23T03:50:26;2.67;;;2.58;;
9330;SDS011;4704;50.470;12.072;2023-05-23T03:52:54;2.90;;;2.70;;
9330;SDS011;4704;50.470;12.072;2023-05-23T03:55:21;2.70;;;2.60;;
9330;SDS011;4704;50.470;12.072;2023-05-23T03:57:49;2.55;;;2.45;;
9330;SDS011;4704;50.470;12.072;2023-05-23T04:00:17;2.80;;;2.60;;
9330;SDS011;4704;50.470;12.072;2023-05-23T04:02:45;3.03;;;2.83;;
9330;SDS011;4704;50.470;12.072;2023-05-23T04:05:15;2.65;;;2.45;;
9330;SDS011;4704;50.470;12.072;2023-05-23T04:07:43;2.55;;;2.45;;
9330;SDS011;4704;50.470;12.072;2023-05-23T04:10:10;2.50;;;2.40;;
9330;SDS011;4704;50.470;12.072;2023-05-23T04:12:37;2.83;;;2.63;;
9330;SDS011;4704;50.470;12.072;2023-05-23T04:15:06;2.60;;;2.50;;
9330;SDS011;4704;50.470;12.072;2023-05-23T04:17:34;2.40;;;2.30;;
9330;SDS011;4704;50.470;12.072;2023-05-23T04:20:03;2.80;;;2.60;;
9330;SDS011;4704;50.470;12.072;2023-05-23T04:22:32;2.78;;;2.67;;
9330;SDS011;4704;50.470;12.072;2023-05-23T04:24:59;2.53;;;2.40;;
9330;SDS011;4704;50.470;12.072;2023-05-23T04:27:27;2.85;;;2.65;;
9330;SDS011;4704;50.470;12.072;2023-05-23T04:29:55;2.80;;;2.60;;
9330;SDS011;4704;50.470;12.072;2023-05-23T04:32:22;2.85;;;2.65;;
9330;SDS011;4704;50.470;12.072;2023-05-23T04:34:50;2.63;;;2.50;;
9330;SDS011;4704;50.470;12.072;2023-05-23T04:37:17;2.50;;;2.40;;
9330;SDS011;4704;50.470;12.072;2023-05-23T04:39:52;2.83;;;2.63;;
9330;SDS011;4704;50.470;12.072;2023-05-23T04:42:20;3.00;;;2.80;;
9330;SDS011;4704;50.470;12.072;2023-05-23T04:44:48;2.70;;;2.60;;
9330;SDS011;4704;50.470;12.072;2023-05-23T04:47:16;2.50;;;2.40;;
9330;SDS011;4704;50.470;12.072;2023-05-23T04:49:44;2.92;;;2.72;;
9330;SDS011;4704;50.470;12.072;2023-05-23T04:52:12;2.60;;;2.50;;
9330;SDS011;4704;50.470;12.072;2023-05-23T04:54:39;2.55;;;2.45;;
9330;SDS011;4704;50.470;12.072;2023-05-23T04:57:10;2.70;;;2.60;;
9330;SDS011;4704;50.470;12.072;2023-05-23T04:59:38;2.60;;;2.40;;
9330;SDS011;4704;50.470;12.072;2023-05-23T05:02:06;2.53;;;2.40;;
9330;SDS011;4704;50.470;12.072;2023-05-23T05:04:34;2.67;;;2.58;;
9330;SDS011;4704;50.470;12.072;2023-05-23T05:07:02;3.00;;;2.80;;
9330;SDS011;4704;50.470;12.072;2023-05-23T05:09:29;2.80;;;2.67;;
9330;SDS011;4704;50.470;12.072;2023-05-23T05:11:56;5.68;;;2.72;;
9330;SDS011;4704;50.470;12.072;2023-05-23T05:14:25;2.70;;;2.60;;
9330;SDS011;4704;50.470;12.072;2023-05-23T05:16:53;2.90;;;2.70;;
9330;SDS011;4704;50.470;12.072;2023-05-23T05:19:22;2.47;;;2.38;;
9330;SDS011;4704;50.470;12.072;2023-05-23T05:21:49;2.85;;;2.65;;
9330;SDS011;4704;50.470;12.072;2023-05-23T05:24:16;2.83;;;2.65;;
9330;SDS011;4704;50.470;12.072;2023-05-23T05:26:45;2.65;;;2.55;;
9330;SDS011;4704;50.470;12.072;2023-05-23T05:29:12;2.70;;;2.60;;
9330;SDS011;4704;50.470;12.072;2023-05-23T05:31:41;2.78;;;2.58;;
9330;SDS011;4704;50.470;12.072;2023-05-23T05:34:09;2.85;;;2.65;;
9330;SDS011;4704;50.470;12.072;2023-05-23T05:36:36;2.95;;;2.75;;
9330;SDS011;4704;50.470;12.072;2023-05-23T05:39:10;2.80;;;2.70;;
9330;SDS011;4704;50.470;12.072;2023-05-23T05:41:37;3.20;;;3.00;;
9330;SDS011;4704;50.470;12.072;2023-05-23T05:44:04;3.05;;;2.85;;
9330;SDS011;4704;50.470;12.072;2023-05-23T05:46:32;2.53;;;2.42;;
9330;SDS011;4704;50.470;12.072;2023-05-23T05:49:01;2.70;;;2.50;;
9330;SDS011;4704;50.470;12.072;2023-05-23T05:51:28;2.72;;;2.63;;
9330;SDS011;4704;50.470;12.072;2023-05-23T05:53:56;2.80;;;2.60;;
9330;SDS011;4704;50.470;12.072;2023-05-23T05:56:23;3.20;;;3.00;;
9330;SDS011;4704;50.470;12.072;2023-05-23T05:58:52;3.15;;;2.88;;
9330;SDS011;4704;50.470;12.072;2023-05-23T06:01:20;3.05;;;2.85;;
9330;SDS011;4704;50.470;12.072;2023-05-23T06:03:47;2.80;;;2.60;;
9330;SDS011;4704;50.470;12.072;2023-05-23T06:06:16;3.15;;;2.95;;
9330;SDS011;4704;50.470;12.072;2023-05-23T06:08:43;2.90;;;2.70;;
9330;SDS011;4704;50.470;12.072;2023-05-23T06:11:11;3.08;;;2.88;;
9330;SDS011;4704;50.470;12.072;2023-05-23T06:13:38;3.10;;;2.90;;
9330;SDS011;4704;50.470;12.072;2023-05-23T06:16:05;3.10;;;2.90;;
9330;SDS011;4704;50.470;12.072;2023-05-23T06:18:33;3.20;;;3.00;;
9330;SDS011;4704;50.470;12.072;2023-05-23T06:21:00;3.05;;;2.85;;
9330;SDS011;4704;50.470;12.072;2023-05-23T06:23:29;3.38;;;3.10;;
9330;SDS011;4704;50.470;12.072;2023-05-23T06:25:57;3.30;;;3.10;;
9330;SDS011;4704;50.470;12.072;2023-05-23T06:28:24;3.40;;;3.10;;
9330;SDS011;4704;50.470;12.072;2023-05-23T06:30:52;3.60;;;3.40;;
9330;SDS011;4704;50.470;12.072;2023-05-23T06:33:19;3.85;;;3.55;;
9330;SDS011;4704;50.470;12.072;2023-05-23T06:35:46;3.50;;;3.30;;
9330;SDS011;4704;50.470;12.072;2023-05-23T06:38:13;3.58;;;3.28;;
9330;SDS011;4704;50.470;12.072;2023-05-23T06:40:42;3.45;;;3.25;;
9330;SDS011;4704;50.470;12.072;2023-05-23T06:43:10;3.17;;;2.92;;
9330;SDS011;4704;50.470;12.072;2023-05-23T06:45:37;3.80;;;3.50;;
9330;SDS011;4704;50.470;12.072;2023-05-23T06:48:04;3.30;;;3.10;;
9330;SDS011;4704;50.470;12.072;2023-05-23T06:50:32;3.55;;;3.25;;
9330;SDS011;4704;50.470;12.072;2023-05-23T06:52:59;3.28;;;3.08;;
9330;SDS011;4704;50.470;12.072;2023-05-23T06:55:27;3.30;;;3.10;;
9330;SDS011;4704;50.470;12.072;2023-05-23T06:57:57;3.47;;;3.28;;
9330;SDS011;4704;50.470;12.072;2023-05-23T07:00:24;3.30;;;3.10;;
9330;SDS011;4704;50.470;12.072;2023-05-23T07:02:52;3.58;;;3.38;;
9330;SDS011;4704;50.470;12.072;2023-05-23T07:05:19;3.50;;;3.30;;
9330;SDS011;4704;50.470;12.072;2023-05-23T07:07:47;3.45;;;3.25;;
9330;SDS011;4704;50.470;12.072;2023-05-23T07:10:14;3.63;;;3.33;;
9330;SDS011;4704;50.470;12.072;2023-05-23T07:12:42;4.00;;;3.70;;
9330;SDS011;4704;50.470;12.072;2023-05-23T07:15:11;3.53;;;3.33;;
9330;SDS011;4704;50.470;12.072;2023-05-23T07:17:39;3.53;;;3.28;;
9330;SDS011;4704;50.470;12.072;2023-05-23T07:20:06;3.63;;;3.42;;
9330;SDS011;4704;50.470;12.072;2023-05-23T07:22:34;3.70;;;3.40;;
9330;SDS011;4704;50.470;12.072;2023-05-23T07:25:02;3.50;;;3.30;;
9330;SDS011;4704;50.470;12.072;2023-05-23T07:27:29;3.90;;;3.60;;
9330;SDS011;4704;50.470;12.072;2023-05-23T07:29:56;3.55;;;3.35;;
9330;SDS011;4704;50.470;12.072;2023-05-23T07:32:25;3.53;;;3.33;;
9330;SDS011;4704;50.470;12.072;2023-05-23T07:34:53;3.55;;;3.28;;
9330;SDS011;4704;50.470;12.072;2023-05-23T07:37:20;3.72;;;3.53;;
9330;SDS011;4704;50.470;12.072;2023-05-23T07:39:48;3.72;;;3.40;;
9330;SDS011;4704;50.470;12.072;2023-05-23T07:42:15;3.22;;;3.03;;
9330;SDS011;4704;50.470;12.072;2023-05-23T07:44:42;3.70;;;3.50;;
9330;SDS011;4704;50.470;12.072;2023-05-23T07:47:10;3.90;;;3.60;;
9330;SDS011;4704;50.470;12.072;2023-05-23T07:49:39;3.63;;;3.33;;
9330;SDS011;4704;50.470;12.072;2023-05-23T07:52:06;4.03;;;3.63;;
9330;SDS011;4704;50.470;12.072;2023-05-23T07:54:33;3.65;;;3.35;;
9330;SDS011;4704;50.470;12.072;2023-05-23T07:57:01;3.30;;;3.10;;
9330;SDS011;4704;50.470;12.072;2023-05-23T07:59:28;4.07;;;3.78;;
9330;SDS011;4704;50.470;12.072;2023-05-23T08:01:55;3.63;;;3.42;;
9330;SDS011;4704;50.470;12.072;2023-05-23T08:04:23;3.90;;;3.60;;
9330;SDS011;4704;50.470;12.072;2023-05-23T08:06:52;4.00;;;3.70;;
9330;SDS011;4704;50.470;12.072;2023-05-23T08:09:19;3.85;;;3.65;;
9330;SDS011;4704;50.470;12.072;2023-05-23T08:11:47;4.10;;;3.80;;
9330;SDS011;4704;50.470;12.072;2023-05-23T08:14:14;4.05;;;3.72;;
9330;SDS011;4704;50.470;12.072;2023-05-23T08:16:41;4.30;;;4.00;;
9330;SDS011;4704;50.470;12.072;2023-05-23T08:19:09;3.67;;;3.45;;
9330;SDS011;4704;50.470;12.072;2023-05-23T08:21:36;4.18;;;3.88;;
9330;SDS011;4704;50.470;12.072;2023-05-23T08:24:05;3.83;;;3.60;;
9330;SDS011;4704;50.470;12.072;2023-05-23T08:26:32;3.92;;;3.60;;
9330;SDS011;4704;50.470;12.072;2023-05-23T08:29:00;3.92;;;3.63;;
9330;SDS011;4704;50.470;12.072;2023-05-23T08:31:28;4.10;;;3.80;;
9330;SDS011;4704;50.470;12.072;2023-05-23T08:33:55;3.88;;;3.58;;
9330;SDS011;4704;50.470;12.072;2023-05-23T08:36:23;3.80;;;3.60;;
9330;SDS011;4704;50.470;12.072;2023-05-23T08:38:50;4.28;;;3.92;;
9330;SDS011;4704;50.470;12.072;2023-05-23T08:41:19;4.22;;;3.92;;
9330;SDS011;4704;50.470;12.072;2023-05-23T08:43:47;3.88;;;3.58;;
9330;SDS011;4704;50.470;12.072;2023-05-23T08:46:15;3.88;;;3.67;;
9330;SDS011;4704;50.470;12.072;2023-05-23T08:48:43;4.20;;;3.75;;
9330;SDS011;4704;50.470;12.072;2023-05-23T08:51:13;3.85;;;3.65;;
9330;SDS011;4704;50.470;12.072;2023-05-23T08:53:41;4.13;;;3.83;;
9330;SDS011;4704;50.470;12.072;2023-05-23T08:56:11;4.18;;;3.88;;
9330;SDS011;4704;50.470;12.072;2023-05-23T08:58:41;4.05;;;3.75;;
9330;SDS011;4704;50.470;12.072;2023-05-23T09:01:08;3.90;;;3.60;;
9330;SDS011;4704;50.470;12.072;2023-05-23T09:03:36;4.40;;;4.10;;
9330;SDS011;4704;50.470;12.072;2023-05-23T09:06:05;4.20;;;3.90;;
9330;SDS011;4704;50.470;12.072;2023-05-23T09:08:32;3.95;;;3.65;;
9330;SDS011;4704;50.470;12.072;2023-05-23T09:11:00;3.88;;;3.58;;
9330;SDS011;4704;50.470;12.072;2023-05-23T09:13:28;4.32;;;4.03;;
9330;SDS011;4704;50.470;12.072;2023-05-23T09:15:59;4.03;;;3.72;;
9330;SDS011;4704;50.470;12.072;2023-05-23T09:18:27;4.05;;;3.75;;
9330;SDS011;4704;50.470;12.072;2023-05-23T09:20:59;4.40;;;4.10;;
9330;SDS011;4704;50.470;12.072;2023-05-23T09:23:28;3.97;;;3.67;;
9330;SDS011;4704;50.470;12.072;2023-05-23T09:25:55;4.30;;;4.00;;
9330;SDS011;4704;50.470;12.072;2023-05-23T09:28:22;4.32;;;4.03;;
9330;SDS011;4704;50.470;12.072;2023-05-23T09:30:57;4.35;;;4.05;;
9330;SDS011;4704;50.470;12.072;2023-05-23T09:33:28;4.55;;;4.15;;
9330;SDS011;4704;50.470;12.072;2023-05-23T09:35:55;4.30;;;4.00;;
9330;SDS011;4704;50.470;12.072;2023-05-23T09:38:23;4.10;;;3.80;;
9330;SDS011;4704;50.470;12.072;2023-05-23T09:40:53;4.03;;;3.78;;
9330;SDS011;4704;50.470;12.072;2023-05-23T09:43:22;4.07;;;3.78;;
9330;SDS011;4704;50.470;12.072;2023-05-23T09:45:50;4.22;;;3.92;;
9330;SDS011;4704;50.470;12.072;2023-05-23T09:48:20;4.43;;;4.13;;
9330;SDS011;4704;50.470;12.072;2023-05-23T09:50:54;4.43;;;4.13;;
9330;SDS011;4704;50.470;12.072;2023-05-23T09:53:22;4.15;;;3.85;;
9330;SDS011;4704;50.470;12.072;2023-05-23T09:55:50;4.13;;;3.83;;
9330;SDS011;4704;50.470;12.072;2023-05-23T09:58:19;4.32;;;4.03;;
9330;SDS011;4704;50.470;12.072;2023-05-23T10:00:47;4.68;;;4.32;;
9330;SDS011;4704;50.470;12.072;2023-05-23T10:03:20;4.20;;;3.90;;
9330;SDS011;4704;50.470;12.072;2023-05-23T10:05:49;4.97;;;4.20;;
9330;SDS011;4704;50.470;12.072;2023-05-23T10:08:18;4.78;;;4.43;;
9330;SDS011;4704;50.470;12.072;2023-05-23T10:13:31;4.35;;;4.05;;
9330;SDS011;4704;50.470;12.072;2023-05-23T10:16:01;4.90;;;4.60;;
9330;SDS011;4704;50.470;12.072;2023-05-23T10:18:37;4.57;;;4.28;;
9330;SDS011;4704;50.470;12.072;2023-05-23T10:21:08;4.53;;;4.13;;
9330;SDS011;4704;50.470;12.072;2023-05-23T10:23:35;4.50;;;4.20;;
9330;SDS011;4704;50.470;12.072;2023-05-23T10:26:03;4.97;;;4.57;;
9330;SDS011;4704;50.470;12.072;2023-05-23T10:28:30;4.45;;;4.10;;
9330;SDS011;4704;50.470;12.072;2023-05-23T10:30:58;4.43;;;4.13;;
9330;SDS011;4704;50.470;12.072;2023-05-23T10:33:26;4.25;;;3.95;;
9330;SDS011;4704;50.470;12.072;2023-05-23T10:35:58;4.40;;;4.10;;
9330;SDS011;4704;50.470;12.072;2023-05-23T10:38:33;4.38;;;4.07;;
9330;SDS011;4704;50.470;12.072;2023-05-23T10:41:05;4.22;;;3.92;;
9330;SDS011;4704;50.470;12.072;2023-05-23T10:43:41;4.55;;;4.25;;
9330;SDS011;4704;50.470;12.072;2023-05-23T10:46:11;3.90;;;3.60;;
9330;SDS011;4704;50.470;12.072;2023-05-23T10:48:40;4.22;;;3.92;;
9330;SDS011;4704;50.470;12.072;2023-05-23T10:51:09;4.32;;;4.03;;
9330;SDS011;4704;50.470;12.072;2023-05-23T10:53:38;4.15;;;3.85;;
9330;SDS011;4704;50.470;12.072;2023-05-23T10:56:06;3.85;;;3.65;;
9330;SDS011;4704;50.470;12.072;2023-05-23T10:58:34;3.88;;;3.58;;
9330;SDS011;4704;50.470;12.072;2023-05-23T11:01:04;4.10;;;3.80;;
9330;SDS011;4704;50.470;12.072;2023-05-23T11:03:36;3.90;;;3.60;;
9330;SDS011;4704;50.470;12.072;2023-05-23T11:06:04;3.75;;;3.45;;
9330;SDS011;4704;50.470;12.072;2023-05-23T11:08:39;4.18;;;3.88;;
9330;SDS011;4704;50.470;12.072;2023-05-23T11:11:11;3.50;;;3.30;;
9330;SDS011;4704;50.470;12.072;2023-05-23T11:13:54;3.40;;;3.20;;
9330;SDS011;4704;50.470;12.072;2023-05-23T11:16:25;4.60;;;3.28;;
9330;SDS011;4704;50.470;12.072;2023-05-23T11:21:35;3.42;;;3.22;;
9330;SDS011;4704;50.470;12.072;2023-05-23T11:24:04;3.67;;;3.47;;
9330;SDS011;4704;50.470;12.072;2023-05-23T11:26:32;3.75;;;3.45;;
9330;SDS011;4704;50.470;12.072;2023-05-23T11:28:59;3.20;;;3.00;;
9330;SDS011;4704;50.470;12.072;2023-05-23T11:31:28;3.40;;;3.20;;
9330;SDS011;4704;50.470;12.072;2023-05-23T11:33:56;3.35;;;3.15;;
9330;SDS011;4704;50.470;12.072;2023-05-23T11:36:23;3.40;;;3.20;;
9330;SDS011;4704;50.470;12.072;2023-05-23T11:38:51;3.42;;;3.13;;
9330;SDS011;4704;50.470;12.072;2023-05-23T11:41:20;3.40;;;3.10;;
9330;SDS011;4704;50.470;12.072;2023-05-23T11:43:50;3.63;;;3.33;;
9330;SDS011;4704;50.470;12.072;2023-05-23T11:46:18;3.25;;;3.05;;
9330;SDS011;4704;50.470;12.072;2023-05-23T11:48:45;4.05;;;3.38;;
9330;SDS011;4704;50.470;12.072;2023-05-23T11:51:13;3.60;;;3.30;;
9330;SDS011;4704;50.470;12.072;2023-05-23T11:53:41;3.22;;;2.88;;
9330;SDS011;4704;50.470;12.072;2023-05-23T11:56:08;3.28;;;3.08;;
9330;SDS011;4704;50.470;12.072;2023-05-23T11:58:37;3.10;;;2.90;;
9330;SDS011;4704;50.470;12.072;2023-05-23T12:01:06;3.00;;;2.80;;
9330;SDS011;4704;50.470;12.072;2023-05-23T12:03:34;2.85;;;2.65;;
9330;SDS011;4704;50.470;12.072;2023-05-23T12:06:02;3.30;;;3.10;;
9330;SDS011;4704;50.470;12.072;2023-05-23T12:08:29;3.15;;;2.90;;
9330;SDS011;4704;50.470;12.072;2023-05-23T12:10:57;2.88;;;2.67;;
9330;SDS011;4704;50.470;12.072;2023-05-23T12:13:26;3.10;;;2.85;;
9330;SDS011;4704;50.470;12.072;2023-05-23T12:16:01;3.00;;;2.80;;
9330;SDS011;4704;50.470;12.072;2023-05-23T12:18:29;3.25;;;3.00;;
9330;SDS011;4704;50.470;12.072;2023-05-23T12:20:58;2.88;;;2.63;;
9330;SDS011;4704;50.470;12.072;2023-05-23T12:23:27;3.20;;;3.00;;
9330;SDS011;4704;50.470;12.072;2023-05-23T12:25:55;2.92;;;2.72;;
9330;SDS011;4704;50.470;12.072;2023-05-23T12:28:33;2.60;;;2.50;;
9330;SDS011;4704;50.470;12.072;2023-05-23T12:31:08;3.28;;;2.97;;
9330;SDS011;4704;50.470;12.072;2023-05-23T12:33:37;2.95;;;2.70;;
9330;SDS011;4704;50.470;12.072;2023-05-23T12:36:06;2.75;;;2.55;;
9330;SDS011;4704;50.470;12.072;2023-05-23T12:38:33;3.20;;;2.90;;
9330;SDS011;4704;50.470;12.072;2023-05-23T12:41:09;2.88;;;2.67;;
9330;SDS011;4704;50.470;12.072;2023-05-23T12:43:37;2.70;;;2.50;;
9330;SDS011;4704;50.470;12.072;2023-05-23T12:46:04;2.97;;;2.78;;
9330;SDS011;4704;50.470;12.072;2023-05-23T12:48:34;3.53;;;2.70;;
9330;SDS011;4704;50.470;12.072;2023-05-23T12:51:01;2.75;;;2.55;;
9330;SDS011;4704;50.470;12.072;2023-05-23T12:53:29;2.40;;;2.10;;
9330;SDS011;4704;50.470;12.072;2023-05-23T12:55:56;2.90;;;2.70;;
9330;SDS011;4704;50.470;12.072;2023-05-23T12:58:24;2.70;;;2.50;;
9330;SDS011;4704;50.470;12.072;2023-05-23T13:00:52;2.50;;;2.40;;
9330;SDS011;4704;50.470;12.072;2023-05-23T13:03:19;2.65;;;2.45;;
9330;SDS011;4704;50.470;12.072;2023-05-23T13:05:48;2.47;;;2.38;;
9330;SDS011;4704;50.470;12.072;2023-05-23T13:08:15;2.90;;;2.70;;
9330;SDS011;4704;50.470;12.072;2023-05-23T13:10:43;2.40;;;2.30;;
9330;SDS011;4704;50.470;12.072;2023-05-23T13:13:11;2.65;;;2.50;;
9330;SDS011;4704;50.470;12.072;2023-05-23T13:15:38;2.33;;;2.22;;
9330;SDS011;4704;50.470;12.072;2023-05-23T13:18:05;2.67;;;2.47;;
9330;SDS011;4704;50.470;12.072;2023-05-23T13:20:33;2.70;;;2.50;;
9330;SDS011;4704;50.470;12.072;2023-05-23T13:23:02;2.38;;;2.28;;
9330;SDS011;4704;50.470;12.072;2023-05-23T13:25:29;2.58;;;2.38;;
9330;SDS011;4704;50.470;12.072;2023-05-23T13:27:57;2.60;;;2.40;;
9330;SDS011;4704;50.470;12.072;2023-05-23T13:30:26;2.30;;;2.20;;
9330;SDS011;4704;50.470;12.072;2023-05-23T13:32:53;2.30;;;2.17;;
9330;SDS011;4704;50.470;12.072;2023-05-23T13:35:21;2.30;;;2.17;;
9330;SDS011;4704;50.470;12.072;2023-05-23T13:37:49;2.20;;;2.10;;
9330;SDS011;4704;50.470;12.072;2023-05-23T13:40:18;2.45;;;2.25;;
9330;SDS011;4704;50.470;12.072;2023-05-23T13:42:46;2.50;;;2.30;;
9330;SDS011;4704;50.470;12.072;2023-05-23T13:45:14;2.33;;;2.13;;
9330;SDS011;4704;50.470;12.072;2023-05-23T13:47:42;2.45;;;2.33;;
9330;SDS011;4704;50.470;12.072;2023-05-23T13:50:10;2.30;;;2.10;;
9330;SDS011;4704;50.470;12.072;2023-05-23T13:52:38;2.28;;;2.17;;
9330;SDS011;4704;50.470;12.072;2023-05-23T13:55:05;2.20;;;2.10;;
9330;SDS011;4704;50.470;12.072;2023-05-23T13:57:34;2.33;;;2.20;;
9330;SDS011;4704;50.470;12.072;2023-05-23T14:00:02;2.20;;;2.10;;
9330;SDS011;4704;50.470;12.072;2023-05-23T14:02:30;1.90;;;1.80;;
9330;SDS011;4704;50.470;12.072;2023-05-23T14:04:57;2.20;;;2.10;;
9330;SDS011;4704;50.470;12.072;2023-05-23T14:07:24;2.25;;;2.08;;
9330;SDS011;4704;50.470;12.072;2023-05-23T14:09:52;2.20;;;2.10;;
9330;SDS011;4704;50.470;12.072;2023-05-23T14:12:19;1.90;;;1.80;;
9330;SDS011;4704;50.470;12.072;2023-05-23T14:14:48;2.10;;;2.00;;
9330;SDS011;4704;50.470;12.072;2023-05-23T14:17:16;2.10;;;1.90;;
9330;SDS011;4704;50.470;12.072;2023-05-23T14:19:43;2.10;;;2.00;;
9330;SDS011;4704;50.470;12.072;2023-05-23T14:22:11;1.80;;;1.70;;
9330;SDS011;4704;50.470;12.072;2023-05-23T14:24:38;1.90;;;1.80;;
9330;SDS011;4704;50.470;12.072;2023-05-23T14:27:05;2.10;;;2.00;;
9330;SDS011;4704;50.470;12.072;2023-05-23T14:29:33;2.03;;;1.92;;
9330;SDS011;4704;50.470;12.072;2023-05-23T14:32:02;2.15;;;2.05;;
9330;SDS011;4704;50.470;12.072;2023-05-23T14:34:29;1.75;;;1.65;;
9330;SDS011;4704;50.470;12.072;2023-05-23T14:36:56;2.10;;;2.00;;
9330;SDS011;4704;50.470;12.072;2023-05-23T14:39:24;2.10;;;2.00;;
9330;SDS011;4704;50.470;12.072;2023-05-23T14:41:53;1.80;;;1.70;;
9330;SDS011;4704;50.470;12.072;2023-05-23T14:44:20;1.98;;;1.85;;
9330;SDS011;4704;50.470;12.072;2023-05-23T14:46:48;1.77;;;1.67;;
9330;SDS011;4704;50.470;12.072;2023-05-23T14:49:17;1.80;;;1.70;;
9330;SDS011;4704;50.470;12.072;2023-05-23T14:51:44;1.80;;;1.70;;
9330;SDS011;4704;50.470;12.072;2023-05-23T14:54:12;2.00;;;1.90;;
9330;SDS011;4704;50.470;12.072;2023-05-23T14:56:40;1.80;;;1.70;;
9330;SDS011;4704;50.470;12.072;2023-05-23T14:59:07;1.80;;;1.70;;
9330;SDS011;4704;50.470;12.072;2023-05-23T15:01:35;1.70;;;1.60;;
9330;SDS011;4704;50.470;12.072;2023-05-23T15:04:02;1.95;;;1.83;;
9330;SDS011;4704;50.470;12.072;2023-05-23T15:06:34;2.00;;;1.73;;
9330;SDS011;4704;50.470;12.072;2023-05-23T15:09:02;1.50;;;1.40;;
9330;SDS011;4704;50.470;12.072;2023-05-23T15:11:29;1.50;;;1.40;;